createdAt,value
2019-05-05T00:01:55.513Z,26.60
2019-05-05T00:04:38.319Z,26.90
2019-05-05T00:07:06.855Z,18.73
2019-05-05T00:09:35.457Z,22.10
2019-05-05T00:12:05.705Z,22.67
2019-05-05T00:14:38.609Z,20.95
2019-05-05T00:17:14.873Z,21.30
2019-05-05T00:19:45.445Z,20.82
2019-05-05T00:22:15.145Z,20.35
2019-05-05T00:24:44.447Z,19.52
2019-05-05T00:27:14.955Z,20.20
2019-05-05T00:29:45.357Z,20.72
2019-05-05T00:32:15.336Z,20.95
2019-05-05T00:34:44.618Z,17.62
2019-05-05T00:37:15.131Z,19.62
2019-05-05T00:39:45.159Z,17.32
2019-05-05T00:42:15.443Z,19.20
2019-05-05T00:44:44.721Z,18.52
2019-05-05T00:47:21.072Z,20.90
2019-05-05T00:49:51.340Z,17.75
2019-05-05T00:52:19.936Z,17.70
2019-05-05T00:54:48.545Z,17.45
2019-05-05T00:57:17.069Z,18.15
2019-05-05T00:59:45.684Z,15.88
2019-05-05T01:02:18.567Z,17.90
2019-05-05T01:04:55.110Z,16.87
2019-05-05T01:07:24.748Z,17.12
2019-05-05T01:09:54.341Z,19.82
2019-05-05T01:12:24.371Z,18.65
2019-05-05T01:14:55.091Z,19.12
2019-05-05T01:17:25.310Z,17.00
2019-05-05T01:20:01.186Z,20.35
2019-05-05T01:22:24.963Z,19.67
2019-05-05T01:24:55.355Z,15.98
2019-05-05T01:27:25.444Z,16.48
2019-05-05T01:29:54.652Z,16.95
2019-05-05T01:32:25.141Z,14.53
2019-05-05T01:34:54.956Z,22.60
2019-05-05T01:37:25.539Z,20.82
2019-05-05T01:39:58.566Z,25.37
2019-05-05T01:42:27.175Z,22.95
2019-05-05T01:44:55.791Z,26.87
2019-05-05T01:47:25.389Z,28.02
2019-05-05T01:49:54.640Z,26.23
2019-05-05T01:52:25.317Z,29.70
2019-05-05T01:54:54.774Z,28.57
2019-05-05T01:57:25.197Z,30.45
2019-05-05T01:59:55.205Z,27.70
2019-05-05T02:02:25.137Z,27.37
2019-05-05T02:04:55.415Z,28.38
2019-05-05T02:07:24.988Z,26.65
2019-05-05T02:09:55.412Z,28.05
2019-05-05T02:12:26.338Z,24.23
2019-05-05T02:14:55.230Z,26.20
2019-05-05T02:17:24.672Z,27.90
2019-05-05T02:19:54.967Z,25.32
2019-05-05T02:22:25.217Z,26.82
2019-05-05T02:24:55.111Z,30.57
2019-05-05T02:27:25.264Z,28.90
2019-05-05T02:29:56.005Z,27.13
2019-05-05T02:32:26.276Z,24.67
2019-05-05T02:35:02.277Z,24.70
2019-05-05T02:37:30.895Z,23.12
2019-05-05T02:40:06.214Z,21.80
2019-05-05T02:42:30.389Z,24.45
2019-05-05T02:45:05.361Z,21.82
2019-05-05T02:47:37.820Z,26.65
2019-05-05T02:50:09.203Z,22.40
2019-05-05T02:52:39.827Z,21.02
2019-05-05T02:55:09.890Z,20.72
2019-05-05T02:57:39.043Z,25.05
2019-05-05T03:00:25.022Z,24.63
2019-05-05T03:02:56.911Z,20.97
2019-05-05T03:05:25.918Z,22.22
2019-05-05T03:07:56.223Z,21.15
2019-05-05T03:10:27.144Z,22.67
2019-05-05T03:12:57.254Z,26.10
2019-05-05T03:16:03.766Z,23.87
2019-05-05T03:18:33.826Z,25.05
2019-05-05T03:21:07.221Z,22.55
2019-05-05T03:23:33.462Z,25.60
2019-05-05T03:26:03.917Z,23.10
2019-05-05T03:28:43.886Z,27.52
2019-05-05T03:31:16.121Z,24.60
2019-05-05T03:33:46.055Z,26.02
2019-05-05T03:36:14.923Z,21.48
2019-05-05T03:38:44.414Z,26.80
2019-05-05T03:41:15.666Z,24.05
2019-05-05T03:44:01.137Z,22.77
2019-05-05T03:46:30.929Z,27.05
2019-05-05T03:48:59.877Z,27.32
2019-05-05T03:51:29.199Z,26.02
2019-05-05T03:53:57.828Z,22.58
2019-05-05T03:56:26.977Z,22.15
2019-05-05T03:58:58.326Z,22.15
2019-05-05T04:01:37.276Z,24.45
2019-05-05T04:04:24.743Z,24.82
2019-05-05T04:07:04.711Z,22.50
2019-05-05T04:09:34.542Z,22.70
2019-05-05T04:12:04.464Z,23.07
2019-05-05T04:14:34.886Z,19.52
2019-05-05T04:17:18.190Z,23.52
2019-05-05T04:19:51.375Z,21.80
2019-05-05T04:22:19.978Z,22.93
2019-05-05T04:24:48.592Z,22.20
2019-05-05T04:27:17.201Z,23.30
2019-05-05T04:29:45.668Z,19.32
2019-05-05T04:32:14.341Z,21.07
2019-05-05T04:34:43.835Z,22.62
2019-05-05T04:37:14.856Z,19.35
2019-05-05T04:39:44.419Z,20.17
2019-05-05T04:42:14.180Z,18.30
2019-05-05T04:44:44.848Z,19.73
2019-05-05T04:47:14.997Z,19.45
2019-05-05T04:49:47.903Z,21.62
2019-05-05T04:52:21.038Z,19.75
2019-05-05T04:54:55.697Z,18.12
2019-05-05T04:57:24.345Z,21.55
2019-05-05T04:59:54.048Z,22.67
2019-05-05T05:02:27.207Z,19.35
2019-05-05T05:04:57.458Z,20.23
2019-05-05T05:07:26.739Z,18.35
2019-05-05T05:09:55.411Z,18.32
2019-05-05T05:12:23.951Z,21.07
2019-05-05T05:14:54.499Z,19.42
2019-05-05T05:17:24.887Z,20.17
2019-05-05T05:19:54.322Z,20.95
2019-05-05T05:22:24.308Z,18.15
2019-05-05T05:24:54.145Z,18.82
2019-05-05T05:27:24.991Z,19.10
2019-05-05T05:29:55.202Z,18.85
2019-05-05T05:32:24.678Z,18.82
2019-05-05T05:34:54.269Z,22.00
2019-05-05T05:37:23.974Z,16.60
2019-05-05T05:39:54.587Z,16.70
2019-05-05T05:42:24.172Z,16.15
2019-05-05T05:45:00.466Z,14.45
2019-05-05T05:47:33.926Z,15.20
2019-05-05T05:50:10.280Z,15.68
2019-05-05T05:52:38.742Z,15.18
2019-05-05T05:55:07.978Z,15.05
2019-05-05T05:57:36.785Z,15.32
2019-05-05T06:00:07.462Z,12.15
2019-05-05T06:02:36.011Z,15.83
2019-05-05T06:05:05.851Z,12.23
2019-05-05T06:07:34.482Z,14.03
2019-05-05T06:10:03.718Z,12.80
2019-05-05T06:12:33.637Z,14.83
2019-05-05T06:15:03.840Z,13.53
2019-05-05T06:17:34.366Z,14.30
2019-05-05T06:20:04.052Z,14.50
2019-05-05T06:22:34.308Z,13.20
2019-05-05T06:25:06.496Z,12.13
2019-05-05T06:27:34.278Z,12.70
2019-05-05T06:30:04.539Z,10.75
2019-05-05T06:32:34.296Z,11.75
2019-05-05T06:35:03.659Z,12.33
2019-05-05T06:37:34.266Z,12.70
2019-05-05T06:40:04.640Z,12.70
2019-05-05T06:42:37.500Z,10.68
2019-05-05T06:45:09.422Z,17.73
2019-05-05T06:47:39.433Z,10.43
2019-05-05T06:50:08.243Z,10.43
2019-05-05T06:52:44.357Z,9.15
2019-05-05T06:55:07.481Z,10.90
2019-05-05T06:57:36.927Z,7.72
2019-05-05T07:00:07.028Z,8.93
2019-05-05T07:02:35.632Z,7.60
2019-05-05T07:05:04.634Z,9.43
2019-05-05T07:07:34.304Z,7.58
2019-05-05T07:10:03.927Z,8.05
2019-05-05T07:12:34.587Z,8.95
2019-05-05T07:15:04.210Z,8.70
2019-05-05T07:17:33.821Z,6.37
2019-05-05T07:20:04.364Z,7.45
2019-05-05T07:22:34.702Z,8.10
2019-05-05T07:25:04.676Z,7.08
2019-05-05T07:27:33.947Z,8.63
2019-05-05T07:30:04.783Z,8.28
2019-05-05T07:32:33.868Z,6.55
2019-05-05T07:35:04.323Z,7.12
2019-05-05T07:37:34.440Z,7.67
2019-05-05T07:40:04.232Z,7.87
2019-05-05T07:42:33.574Z,6.72
2019-05-05T07:45:04.068Z,7.05
2019-05-05T07:47:34.231Z,7.83
2019-05-05T07:50:04.104Z,6.37
2019-05-05T07:52:34.395Z,6.37
2019-05-05T07:55:03.715Z,6.95
2019-05-05T07:57:34.182Z,7.55
2019-05-05T08:00:02.816Z,6.78
2019-05-05T08:02:33.883Z,7.25
2019-05-05T08:05:04.545Z,7.42
2019-05-05T08:07:34.049Z,7.62
2019-05-05T08:10:04.555Z,7.22
2019-05-05T08:12:34.203Z,7.75
2019-05-05T08:15:04.652Z,8.55
2019-05-05T08:17:40.692Z,8.80
2019-05-05T08:20:14.419Z,8.00
2019-05-05T08:22:44.331Z,13.18
2019-05-05T08:25:14.826Z,8.10
2019-05-05T08:27:50.794Z,7.50
2019-05-05T08:30:35.994Z,8.68
2019-05-05T08:33:05.011Z,7.97
2019-05-05T08:35:34.390Z,8.23
2019-05-05T08:38:04.530Z,8.08
2019-05-05T08:40:34.563Z,8.08
2019-05-05T08:43:04.582Z,7.60
2019-05-05T08:45:34.974Z,7.37
2019-05-05T08:48:04.871Z,8.05
2019-05-05T08:50:34.829Z,8.78
2019-05-05T08:53:04.865Z,8.45
2019-05-05T08:55:34.315Z,7.80
2019-05-05T08:58:04.556Z,8.50
2019-05-05T09:00:33.920Z,7.33
2019-05-05T09:03:03.755Z,7.47
2019-05-05T09:05:34.637Z,7.65
2019-05-05T09:08:04.488Z,8.38
2019-05-05T09:10:34.270Z,7.78
2019-05-05T09:13:03.889Z,8.78
2019-05-05T09:15:33.665Z,9.73
2019-05-05T09:18:04.796Z,8.35
2019-05-05T09:20:34.786Z,7.70
2019-05-05T09:23:04.191Z,8.30
2019-05-05T09:25:49.633Z,8.83
2019-05-05T09:28:19.790Z,8.68
2019-05-05T09:30:49.969Z,8.90
2019-05-05T09:33:18.650Z,8.55
2019-05-05T09:35:49.330Z,8.73
2019-05-05T09:38:18.319Z,9.00
2019-05-05T09:40:46.965Z,9.63
2019-05-05T09:43:17.052Z,8.10
2019-05-05T09:45:45.720Z,9.53
2019-05-05T09:48:14.329Z,10.23
2019-05-05T09:50:43.679Z,9.25
2019-05-05T09:53:14.537Z,9.23
2019-05-05T09:55:44.296Z,9.73
2019-05-05T09:58:13.826Z,8.90
2019-05-05T10:00:44.521Z,9.43
2019-05-05T10:03:14.477Z,9.05
2019-05-05T10:05:44.402Z,9.88
2019-05-05T10:08:14.278Z,7.80
2019-05-05T10:10:44.238Z,8.80
2019-05-05T10:13:14.948Z,8.58
2019-05-05T10:15:44.302Z,8.20
2019-05-05T10:18:14.073Z,8.30
2019-05-05T10:20:42.935Z,7.47
2019-05-05T10:23:11.731Z,8.53
2019-05-05T10:25:41.961Z,8.73
2019-05-05T10:28:10.625Z,11.33
2019-05-05T10:30:39.182Z,8.90
2019-05-05T10:33:07.783Z,9.48
2019-05-05T10:35:36.390Z,8.78
2019-05-05T10:38:05.186Z,8.43
2019-05-05T10:40:36.077Z,7.20
2019-05-05T10:43:05.085Z,12.88
2019-05-05T10:45:33.757Z,7.97
2019-05-05T10:48:04.035Z,7.72
2019-05-05T10:50:34.091Z,8.28
2019-05-05T10:53:04.514Z,7.97
2019-05-05T10:55:34.659Z,8.75
2019-05-05T10:58:05.095Z,9.35
2019-05-05T11:00:48.688Z,8.88
2019-05-05T11:03:17.559Z,8.23
2019-05-05T11:05:46.538Z,8.65
2019-05-05T11:08:15.455Z,8.28
2019-05-05T11:10:45.180Z,8.95
2019-05-05T11:13:14.500Z,8.40
2019-05-05T11:15:44.346Z,8.65
2019-05-05T11:18:14.730Z,8.30
2019-05-05T11:20:45.021Z,9.35
2019-05-05T11:23:15.159Z,9.23
2019-05-05T11:25:44.463Z,8.75
2019-05-05T11:28:13.652Z,8.05
2019-05-05T11:30:45.412Z,9.48
2019-05-05T11:33:23.609Z,9.25
2019-05-05T11:35:56.682Z,10.28
2019-05-05T11:38:25.312Z,8.78
2019-05-05T11:40:54.798Z,10.20
2019-05-05T11:43:24.678Z,7.37
2019-05-05T11:45:54.420Z,10.57
2019-05-05T11:48:24.019Z,9.40
2019-05-05T11:50:54.061Z,9.00
2019-05-05T11:53:24.920Z,8.55
2019-05-05T11:55:54.898Z,7.45
2019-05-05T11:58:24.864Z,8.60
2019-05-05T12:00:54.710Z,7.85
2019-05-05T12:03:23.554Z,6.60
2019-05-05T12:05:52.181Z,7.67
2019-05-05T12:08:20.752Z,5.85
2019-05-05T12:10:51.008Z,8.45
2019-05-05T12:13:19.643Z,7.05
2019-05-05T12:15:49.818Z,8.08
2019-05-05T12:18:18.369Z,8.00
2019-05-05T12:20:47.209Z,6.25
2019-05-05T12:23:15.812Z,6.33
2019-05-05T12:25:48.910Z,6.28
2019-05-05T12:28:25.239Z,7.87
2019-05-05T12:30:56.482Z,6.80
2019-05-05T12:33:25.357Z,6.00
2019-05-05T12:35:54.124Z,6.03
2019-05-05T12:38:24.139Z,10.25
2019-05-05T12:40:53.637Z,6.67
2019-05-05T12:43:24.548Z,6.37
2019-05-05T12:46:06.431Z,5.58
2019-05-05T12:48:36.692Z,5.22
2019-05-05T12:51:05.336Z,5.67
2019-05-05T12:53:33.940Z,7.70
2019-05-05T12:56:04.107Z,6.22
2019-05-05T12:58:33.608Z,8.20
2019-05-05T13:01:04.297Z,6.08
2019-05-05T13:03:34.615Z,7.58
2019-05-05T13:06:04.114Z,9.38
2019-05-05T13:08:33.996Z,8.03
2019-05-05T13:11:04.047Z,7.17
2019-05-05T13:13:34.546Z,6.45
2019-05-05T13:16:04.264Z,7.87
2019-05-05T13:18:33.961Z,8.15
2019-05-05T13:21:10.286Z,7.42
2019-05-05T13:23:41.982Z,6.45
2019-05-05T13:26:27.261Z,6.20
2019-05-05T13:28:55.822Z,5.78
2019-05-05T13:31:24.382Z,5.10
2019-05-05T13:33:54.776Z,6.37
2019-05-05T13:36:24.190Z,7.55
2019-05-05T13:38:54.528Z,7.72
2019-05-05T13:41:23.254Z,7.78
2019-05-05T13:43:53.975Z,6.92
2019-05-05T13:46:28.229Z,8.65
2019-05-05T13:48:58.478Z,7.00
2019-05-05T13:51:27.038Z,5.90
2019-05-05T13:53:55.635Z,6.75
2019-05-05T13:56:24.572Z,5.58
2019-05-05T13:58:53.087Z,6.20
2019-05-05T14:01:23.576Z,7.72
2019-05-05T14:03:54.035Z,7.35
2019-05-05T14:06:24.146Z,7.08
2019-05-05T14:08:54.079Z,7.80
2019-05-05T14:11:24.784Z,6.87
2019-05-05T14:13:53.664Z,5.85
2019-05-05T14:16:22.262Z,5.97
2019-05-05T14:18:51.095Z,6.58
2019-05-05T14:21:19.692Z,6.60
2019-05-05T14:24:06.079Z,5.40
2019-05-05T14:26:35.356Z,5.87
2019-05-05T14:29:04.441Z,6.92
2019-05-05T14:31:44.436Z,7.67
2019-05-05T14:34:20.789Z,8.30
2019-05-05T14:37:07.186Z,10.03
2019-05-05T14:39:35.721Z,7.87
2019-05-05T14:42:04.565Z,7.67
2019-05-05T14:44:34.315Z,6.55
2019-05-05T14:47:02.980Z,8.13
2019-05-05T14:49:31.510Z,8.65
2019-05-05T14:52:00.234Z,6.42
2019-05-05T14:54:28.827Z,6.10
2019-05-05T14:56:57.473Z,6.97
2019-05-05T14:59:25.937Z,8.10
2019-05-05T15:01:54.538Z,8.90
2019-05-05T15:04:24.851Z,7.17
2019-05-05T15:06:55.095Z,8.30
2019-05-05T15:09:28.633Z,7.70
2019-05-05T15:12:04.915Z,7.20
2019-05-05T15:14:33.494Z,10.23
2019-05-05T15:17:03.686Z,8.28
2019-05-05T15:19:34.034Z,8.65
2019-05-05T15:22:04.029Z,8.20
2019-05-05T15:24:33.606Z,8.73
2019-05-05T15:27:02.433Z,8.45
2019-05-05T15:29:31.073Z,9.00
2019-05-05T15:31:59.674Z,7.60
2019-05-05T15:34:28.205Z,8.10
2019-05-05T15:36:56.727Z,8.03
2019-05-05T15:39:25.322Z,9.23
2019-05-05T15:41:54.382Z,7.83
2019-05-05T15:44:24.075Z,7.62
2019-05-05T15:46:57.595Z,9.55
2019-05-05T15:49:23.660Z,8.53
2019-05-05T15:51:53.950Z,9.08
2019-05-05T15:54:23.653Z,8.95
2019-05-05T15:57:04.860Z,9.55
2019-05-05T15:59:23.967Z,10.35
2019-05-05T16:01:54.713Z,8.55
2019-05-05T16:04:23.643Z,8.75
2019-05-05T16:06:54.114Z,11.17
2019-05-05T16:09:23.053Z,9.53
2019-05-05T16:11:51.579Z,9.43
2019-05-05T16:14:21.068Z,9.20
2019-05-05T16:16:51.181Z,8.93
2019-05-05T16:19:27.904Z,10.63
2019-05-05T16:21:57.643Z,9.88
2019-05-05T16:24:27.888Z,9.15
2019-05-05T16:26:56.396Z,10.65
2019-05-05T16:29:25.005Z,8.68
2019-05-05T16:31:53.696Z,9.13
2019-05-05T16:34:23.530Z,9.75
2019-05-05T16:36:54.446Z,9.40
2019-05-05T16:39:22.679Z,10.05
2019-05-05T16:41:51.285Z,9.93
2019-05-05T16:44:20.042Z,14.53
2019-05-05T16:46:48.608Z,10.32
2019-05-05T16:49:17.206Z,13.83
2019-05-05T16:51:50.359Z,12.75
2019-05-05T16:54:20.602Z,10.53
2019-05-05T16:56:49.129Z,9.90
2019-05-05T16:59:17.742Z,9.90
2019-05-05T17:01:46.354Z,11.03
2019-05-05T17:04:15.702Z,10.18
2019-05-05T17:06:45.904Z,10.50
2019-05-05T17:09:15.023Z,10.38
2019-05-05T17:11:45.414Z,12.63
2019-05-05T17:14:24.466Z,12.03
2019-05-05T17:17:12.052Z,9.93
2019-05-05T17:19:44.308Z,13.43
2019-05-05T17:22:14.345Z,12.15
2019-05-05T17:24:44.040Z,13.80
2019-05-05T17:27:13.950Z,9.35
2019-05-05T17:29:43.985Z,11.18
2019-05-05T17:32:13.941Z,14.40
2019-05-05T17:34:44.771Z,12.90
2019-05-05T17:37:13.448Z,10.85
2019-05-05T17:39:43.954Z,11.03
2019-05-05T17:42:14.300Z,10.43
2019-05-05T17:44:53.317Z,8.70
2019-05-05T17:47:26.188Z,11.80
2019-05-05T17:49:56.578Z,11.28
2019-05-05T17:52:26.895Z,8.93
2019-05-05T17:54:56.585Z,9.13
2019-05-05T17:57:25.113Z,11.40
2019-05-05T17:59:53.726Z,9.00
2019-05-05T18:02:23.705Z,9.75
2019-05-05T18:04:54.049Z,10.68
2019-05-05T18:07:34.574Z,10.23
2019-05-05T18:10:08.177Z,10.18
2019-05-05T18:12:56.155Z,9.38
2019-05-05T18:15:43.487Z,12.25
2019-05-05T18:18:13.928Z,11.05
2019-05-05T18:20:44.753Z,10.72
2019-05-05T18:23:13.866Z,10.95
2019-05-05T18:25:44.184Z,14.05
2019-05-05T18:28:19.470Z,10.35
2019-05-05T18:30:44.388Z,10.35
2019-05-05T18:33:15.001Z,9.90
2019-05-05T18:35:44.364Z,12.73
2019-05-05T18:38:13.804Z,11.28
2019-05-05T18:40:43.491Z,15.05
2019-05-05T18:43:13.827Z,16.52
2019-05-05T18:45:44.181Z,15.10
2019-05-05T18:48:14.371Z,12.18
2019-05-05T18:50:42.968Z,12.45
2019-05-05T18:53:11.614Z,13.03
2019-05-05T18:55:40.404Z,14.55
2019-05-05T18:58:08.911Z,14.83
2019-05-05T19:00:48.089Z,13.48
2019-05-05T19:03:24.634Z,12.30
2019-05-05T19:05:55.086Z,16.62
2019-05-05T19:08:25.267Z,17.10
2019-05-05T19:10:54.228Z,15.25
2019-05-05T19:13:24.391Z,13.40
2019-05-05T19:15:53.921Z,13.48
2019-05-05T19:18:24.499Z,14.15
2019-05-05T19:21:00.239Z,9.65
2019-05-05T19:23:28.921Z,11.68
2019-05-05T19:25:57.447Z,11.50
2019-05-05T19:28:25.970Z,12.80
2019-05-05T19:30:55.028Z,11.50
2019-05-05T19:33:24.614Z,11.93
2019-05-05T19:35:53.913Z,11.88
2019-05-05T19:38:23.727Z,11.78
2019-05-05T19:40:55.982Z,12.00
2019-05-05T19:43:24.547Z,11.85
2019-05-05T19:45:55.223Z,11.78
2019-05-05T19:48:24.479Z,12.00
2019-05-05T19:50:54.840Z,11.85
2019-05-05T19:53:24.886Z,8.13
2019-05-05T19:55:55.393Z,10.50
2019-05-05T19:58:24.300Z,13.40
2019-05-05T20:00:54.855Z,12.23
2019-05-05T20:03:24.158Z,13.55
2019-05-05T20:05:54.012Z,12.68
2019-05-05T20:08:23.967Z,9.23
2019-05-05T20:10:54.199Z,12.00
2019-05-05T20:13:23.621Z,13.00
2019-05-05T20:15:53.833Z,13.98
2019-05-05T20:18:22.383Z,10.15
2019-05-05T20:21:03.150Z,8.63
2019-05-05T20:23:21.312Z,12.30
2019-05-05T20:25:49.946Z,12.37
2019-05-05T20:28:18.406Z,10.68
2019-05-05T20:30:47.070Z,15.25
2019-05-05T20:33:24.302Z,10.08
2019-05-05T20:36:03.807Z,13.68
2019-05-05T20:38:33.963Z,14.47
2019-05-05T20:41:19.638Z,12.88
2019-05-05T20:43:48.243Z,9.15
2019-05-05T20:46:16.838Z,10.95
2019-05-05T20:48:45.493Z,10.23
2019-05-05T20:51:14.120Z,9.30
2019-05-05T20:53:44.783Z,13.43
2019-05-05T20:56:14.933Z,10.55
2019-05-05T20:58:44.063Z,11.18
2019-05-05T21:01:14.014Z,10.60
2019-05-05T21:03:42.632Z,9.13
2019-05-05T21:06:11.230Z,10.95
2019-05-05T21:08:39.743Z,8.15
2019-05-05T21:11:08.276Z,10.90
2019-05-05T21:13:36.901Z,8.13
2019-05-05T21:16:05.617Z,9.43
2019-05-05T21:18:34.802Z,10.95
2019-05-05T21:21:05.327Z,6.60
2019-05-05T21:23:35.578Z,7.92
2019-05-05T21:26:14.800Z,9.10
2019-05-05T21:28:44.480Z,6.87
2019-05-05T21:31:14.542Z,6.25
2019-05-05T21:33:45.220Z,7.83
2019-05-05T21:36:14.751Z,6.78
2019-05-05T21:38:44.041Z,6.17
2019-05-05T21:41:13.824Z,6.20
2019-05-05T21:43:44.728Z,7.15
2019-05-05T21:46:12.815Z,10.00
2019-05-05T21:48:41.351Z,9.30
2019-05-05T21:51:11.638Z,6.72
2019-05-05T21:53:50.453Z,7.60
2019-05-05T21:56:24.802Z,7.83
2019-05-05T21:58:53.913Z,6.67
2019-05-05T22:01:27.272Z,9.18
2019-05-05T22:03:53.865Z,9.48
2019-05-05T22:06:24.173Z,9.60
2019-05-05T22:08:53.714Z,7.47
2019-05-05T22:11:24.287Z,8.03
2019-05-05T22:13:54.066Z,8.55
2019-05-05T22:16:25.009Z,7.87
2019-05-05T22:18:54.206Z,9.75
2019-05-05T22:21:30.649Z,11.40
2019-05-05T22:24:18.910Z,7.28
2019-05-05T22:26:47.549Z,8.30
2019-05-05T22:29:17.130Z,10.53
2019-05-05T22:31:46.349Z,8.45
2019-05-05T22:34:15.050Z,8.35
2019-05-05T22:36:44.878Z,10.50
2019-05-05T22:39:16.995Z,7.30
2019-05-05T22:41:45.034Z,8.00
2019-05-05T22:44:14.018Z,9.33
2019-05-05T22:46:43.201Z,7.97
2019-05-05T22:49:11.808Z,10.15
2019-05-05T22:51:40.344Z,8.30
2019-05-05T22:54:09.138Z,7.92
2019-05-05T22:56:37.723Z,8.73
2019-05-05T22:59:06.844Z,7.03
2019-05-05T23:01:35.566Z,9.33
2019-05-05T23:04:17.815Z,9.88
2019-05-05T23:06:48.115Z,8.75
2019-05-05T23:09:16.920Z,6.95
2019-05-05T23:11:45.571Z,10.32
2019-05-05T23:14:29.856Z,10.33
2019-05-05T23:17:20.301Z,8.40
2019-05-05T23:19:50.601Z,12.75
2019-05-05T23:22:26.766Z,9.38
2019-05-05T23:24:57.048Z,9.05
2019-05-05T23:27:44.053Z,8.70
2019-05-05T23:30:15.972Z,10.78
2019-05-05T23:32:45.929Z,11.12
2019-05-05T23:35:14.524Z,11.57
2019-05-05T23:37:44.869Z,10.10
2019-05-05T23:40:24.492Z,11.35
2019-05-05T23:42:54.111Z,10.88
2019-05-05T23:45:24.732Z,9.37
2019-05-05T23:47:54.663Z,9.75
2019-05-05T23:50:23.917Z,9.60
2019-05-05T23:52:54.450Z,9.75
2019-05-05T23:55:23.897Z,10.32
2019-05-05T23:57:54.735Z,11.40
